Time;durP1;ratioP1;P1;durP2;ratioP2;P2;SDS_P1;SDS_P2;PMS_P1;PMS_P2;Temp;Humidity;BMP_temperature;BMP_pressure;BME280_temperature;BME280_humidity;BME280_pressure;Samples;Min_cycle;Max_cycle;Signal;HPM_P1;HPM_P2
2022/06/19 00:00:01;;;;;;;24.58;3.63;;;;;;;;;;5054394;28;20048;-70
2022/06/19 00:02:27;;;;;;;24.45;4.55;;;;;;;;;;5052161;28;20123;-70
2022/06/19 00:04:54;;;;;;;23.20;4.55;;;;;;;;;;5031151;28;20080;-70
2022/06/19 00:07:20;;;;;;;19.92;3.67;;;;;;;;;;5049204;28;20127;-70
2022/06/19 00:09:46;;;;;;;23.95;4.00;;;;;;;;;;5050438;28;20094;-70
2022/06/19 00:12:12;;;;;;;23.17;3.40;;;;;;;;;;5051679;28;20514;-69
2022/06/19 00:14:38;;;;;;;26.73;4.32;;;;;;;;;;5050876;28;20045;-70
2022/06/19 00:17:06;;;;;;;20.88;4.05;;;;;;;;;;5052709;28;20449;-69
2022/06/19 00:19:32;;;;;;;24.75;4.20;;;;;;;;;;5053229;28;20498;-70
2022/06/19 00:21:58;;;;;;;25.50;4.10;;;;;;;;;;5052061;28;20083;-70
2022/06/19 00:24:24;;;;;;;24.10;3.35;;;;;;;;;;5053086;28;20045;-71
2022/06/19 00:26:50;;;;;;;20.70;3.60;;;;;;;;;;5051897;28;20410;-71
2022/06/19 00:29:16;;;;;;;15.98;3.22;;;;;;;;;;5053760;28;20507;-70
2022/06/19 00:31:42;;;;;;;20.33;3.05;;;;;;;;;;5052857;28;20499;-70
2022/06/19 00:34:08;;;;;;;19.08;2.95;;;;;;;;;;5049521;28;20091;-71
2022/06/19 00:36:34;;;;;;;22.52;3.65;;;;;;;;;;5052803;28;20033;-70
2022/06/19 00:39:01;;;;;;;25.90;4.22;;;;;;;;;;5034714;28;20049;-69
2022/06/19 00:41:32;;;;;;;20.25;3.75;;;;;;;;;;5048467;28;20087;-69
2022/06/19 00:43:59;;;;;;;23.67;3.67;;;;;;;;;;5033296;28;20098;-70
2022/06/19 00:46:43;;;;;;;20.75;3.35;;;;;;;;;;5053296;28;20048;-70
2022/06/19 00:49:12;;;;;;;17.52;3.30;;;;;;;;;;5052041;28;20414;-70
2022/06/19 00:51:38;;;;;;;24.65;3.80;;;;;;;;;;5052822;28;20041;-71
2022/06/19 00:54:05;;;;;;;18.08;3.47;;;;;;;;;;5050386;28;20041;-70
2022/06/19 00:56:34;;;;;;;23.65;3.63;;;;;;;;;;5051181;28;20041;-70
2022/06/19 00:59:00;;;;;;;17.48;3.25;;;;;;;;;;5049189;28;20491;-70
2022/06/19 01:01:27;;;;;;;16.38;3.03;;;;;;;;;;5052260;28;20041;-70
2022/06/19 01:03:56;;;;;;;24.33;3.55;;;;;;;;;;5052698;28;20059;-70
2022/06/19 01:06:23;;;;;;;20.90;3.25;;;;;;;;;;5048638;28;20936;-70
2022/06/19 01:08:49;;;;;;;21.52;3.30;;;;;;;;;;5053063;28;20061;-69
2022/06/19 01:11:16;;;;;;;18.65;2.97;;;;;;;;;;5048843;28;20052;-69
2022/06/19 01:13:42;;;;;;;18.10;3.33;;;;;;;;;;5050154;28;22138;-69
2022/06/19 01:16:08;;;;;;;19.63;3.25;;;;;;;;;;5048153;28;20037;-70
2022/06/19 01:18:35;;;;;;;19.20;3.25;;;;;;;;;;5051801;28;20045;-70
2022/06/19 01:21:09;;;;;;;22.20;3.45;;;;;;;;;;5052202;28;20088;-70
2022/06/19 01:23:42;;;;;;;19.15;3.15;;;;;;;;;;5050968;28;20044;-70
2022/06/19 01:26:10;;;;;;;20.65;3.15;;;;;;;;;;5050321;28;20060;-70
2022/06/19 01:31:27;;;;;;;20.00;3.40;;;;;;;;;;5050655;28;20041;-70
2022/06/19 01:33:57;;;;;;;18.20;3.03;;;;;;;;;;5047852;28;20040;-70
2022/06/19 01:36:23;;;;;;;21.42;4.25;;;;;;;;;;5051178;28;20041;-69
2022/06/19 01:38:53;;;;;;;18.17;3.63;;;;;;;;;;5051450;28;20045;-70
2022/06/19 01:41:23;;;;;;;22.80;3.63;;;;;;;;;;5032134;28;20103;-70
2022/06/19 01:43:49;;;;;;;22.23;3.85;;;;;;;;;;5050515;28;20056;-70
2022/06/19 01:46:16;;;;;;;31.55;4.22;;;;;;;;;;5050771;28;20456;-70
2022/06/19 01:48:43;;;;;;;17.00;3.38;;;;;;;;;;5051910;28;20095;-70
2022/06/19 01:51:09;;;;;;;20.77;4.03;;;;;;;;;;5051680;28;20483;-70
2022/06/19 01:53:38;;;;;;;19.42;3.03;;;;;;;;;;5050512;28;20033;-70
2022/06/19 01:56:08;;;;;;;17.92;2.72;;;;;;;;;;5050880;28;20049;-69
2022/06/19 01:58:35;;;;;;;16.92;3.17;;;;;;;;;;5052927;28;20128;-70
2022/06/19 02:01:05;;;;;;;20.25;3.65;;;;;;;;;;5048466;28;20095;-70
2022/06/19 02:03:36;;;;;;;14.50;2.95;;;;;;;;;;5048343;28;20037;-71
2022/06/19 02:06:03;;;;;;;19.10;2.90;;;;;;;;;;5049856;28;20067;-70
2022/06/19 02:08:30;;;;;;;14.95;2.53;;;;;;;;;;5051958;28;20130;-69
2022/06/19 02:10:57;;;;;;;14.38;2.58;;;;;;;;;;5017330;28;20102;-70
2022/06/19 02:13:25;;;;;;;13.07;2.30;;;;;;;;;;5050042;28;20469;-69
2022/06/19 02:15:53;;;;;;;11.18;2.00;;;;;;;;;;5048922;28;20399;-70
2022/06/19 02:18:30;;;;;;;11.25;2.08;;;;;;;;;;5051032;28;20037;-69
2022/06/19 02:20:56;;;;;;;15.05;2.22;;;;;;;;;;5050096;28;20483;-70
2022/06/19 02:23:26;;;;;;;12.80;2.53;;;;;;;;;;5049521;28;20091;-69
2022/06/19 02:25:52;;;;;;;14.15;2.25;;;;;;;;;;5052300;28;20052;-70
2022/06/19 02:28:18;;;;;;;16.08;2.50;;;;;;;;;;5050891;28;20407;-70
2022/06/19 02:30:45;;;;;;;14.95;2.53;;;;;;;;;;5050281;28;20128;-70
2022/06/19 02:33:13;;;;;;;12.63;1.90;;;;;;;;;;5047751;28;20120;-70
2022/06/19 02:35:39;;;;;;;13.18;2.72;;;;;;;;;;5050873;28;20510;-69
2022/06/19 02:38:06;;;;;;;13.90;2.58;;;;;;;;;;5053094;28;20544;-70
2022/06/19 02:40:48;;;;;;;20.20;2.88;;;;;;;;;;5055170;28;20053;-69
2022/06/19 02:43:23;;;;;;;14.98;2.63;;;;;;;;;;5054820;28;20045;-69
2022/06/19 02:45:49;;;;;;;19.45;3.20;;;;;;;;;;5050418;28;20036;-70
2022/06/19 02:48:21;;;;;;;17.63;2.40;;;;;;;;;;5054478;28;20083;-70
2022/06/19 02:50:48;;;;;;;21.00;3.55;;;;;;;;;;5054142;28;20041;-71
2022/06/19 02:53:15;;;;;;;19.13;3.47;;;;;;;;;;5052822;28;20053;-70
2022/06/19 02:55:41;;;;;;;21.00;3.15;;;;;;;;;;5053903;28;20044;-70
2022/06/19 02:58:07;;;;;;;17.58;3.22;;;;;;;;;;5055712;28;20399;-69
2022/06/19 03:00:33;;;;;;;16.92;2.70;;;;;;;;;;5036617;28;20060;-69
2022/06/19 03:03:04;;;;;;;21.33;2.50;;;;;;;;;;5052054;28;20044;-69
2022/06/19 03:05:30;;;;;;;17.95;2.85;;;;;;;;;;5053476;28;20045;-70
2022/06/19 03:07:56;;;;;;;15.95;2.70;;;;;;;;;;5055372;28;20053;-70
2022/06/19 03:10:22;;;;;;;17.98;3.10;;;;;;;;;;5054423;28;20049;-70
2022/06/19 03:12:48;;;;;;;14.70;2.95;;;;;;;;;;5054116;28;20072;-70
2022/06/19 03:15:16;;;;;;;20.88;2.95;;;;;;;;;;5054263;28;20134;-69
2022/06/19 03:17:42;;;;;;;16.23;2.67;;;;;;;;;;5053385;28;20171;-69
2022/06/19 03:20:09;;;;;;;17.15;3.00;;;;;;;;;;5053060;28;20534;-70
2022/06/19 03:22:35;;;;;;;16.55;2.47;;;;;;;;;;5034927;28;20056;-70
2022/06/19 03:25:01;;;;;;;21.10;3.15;;;;;;;;;;5052844;28;20040;-70
2022/06/19 03:27:27;;;;;;;22.48;3.42;;;;;;;;;;5053461;28;20033;-70
2022/06/19 03:29:53;;;;;;;18.92;3.28;;;;;;;;;;5053708;28;20425;-71
2022/06/19 03:32:19;;;;;;;18.08;3.10;;;;;;;;;;5052801;28;20049;-70
2022/06/19 03:34:45;;;;;;;16.92;3.00;;;;;;;;;;5050228;28;20402;-70
2022/06/19 03:37:12;;;;;;;16.25;2.60;;;;;;;;;;5036530;28;20052;-70
2022/06/19 03:39:38;;;;;;;18.55;2.90;;;;;;;;;;5047628;28;20045;-70
2022/06/19 03:42:04;;;;;;;15.55;2.50;;;;;;;;;;5053191;28;20049;-70
2022/06/19 03:44:30;;;;;;;17.80;3.00;;;;;;;;;;5053532;28;20052;-70
2022/06/19 03:46:56;;;;;;;14.55;2.67;;;;;;;;;;5053477;28;20056;-70
2022/06/19 03:49:23;;;;;;;16.98;2.90;;;;;;;;;;5052679;28;20041;-70
2022/06/19 03:51:49;;;;;;;20.70;2.85;;;;;;;;;;5035992;28;20072;-70
2022/06/19 03:54:15;;;;;;;18.50;2.50;;;;;;;;;;5018701;28;20116;-70
2022/06/19 03:56:41;;;;;;;20.13;2.60;;;;;;;;;;5052258;28;20483;-70
2022/06/19 03:59:07;;;;;;;16.88;2.38;;;;;;;;;;5054285;28;20049;-70
2022/06/19 04:01:35;;;;;;;19.23;2.95;;;;;;;;;;5044646;28;20431;-70
2022/06/19 04:04:01;;;;;;;15.35;2.65;;;;;;;;;;5038759;28;20484;-69
2022/06/19 04:06:32;;;;;;;14.93;2.20;;;;;;;;;;5052953;28;20049;-69
2022/06/19 04:08:58;;;;;;;20.33;2.78;;;;;;;;;;5053061;28;20049;-69
2022/06/19 04:11:25;;;;;;;15.25;2.17;;;;;;;;;;5053618;28;20111;-69
2022/06/19 04:13:53;;;;;;;16.00;2.45;;;;;;;;;;5053143;28;20056;-70
2022/06/19 04:16:20;;;;;;;11.18;1.88;;;;;;;;;;5035210;28;20043;-70
2022/06/19 04:18:47;;;;;;;15.70;2.55;;;;;;;;;;5035967;28;20384;-70
2022/06/19 04:21:15;;;;;;;16.52;2.28;;;;;;;;;;5047127;28;20100;-70
2022/06/19 04:23:41;;;;;;;13.68;2.10;;;;;;;;;;5052507;28;20469;-69
2022/06/19 04:26:09;;;;;;;13.23;2.28;;;;;;;;;;5053623;28;20044;-70
2022/06/19 04:28:35;;;;;;;12.93;2.03;;;;;;;;;;5047374;28;20128;-70
2022/06/19 04:31:01;;;;;;;14.55;2.60;;;;;;;;;;5052873;28;20380;-70
2022/06/19 04:33:27;;;;;;;13.77;2.70;;;;;;;;;;5051044;28;20131;-70
2022/06/19 04:35:53;;;;;;;14.23;2.50;;;;;;;;;;5052961;28;20479;-69
2022/06/19 04:38:19;;;;;;;14.23;2.35;;;;;;;;;;5053313;28;20114;-69
2022/06/19 04:40:45;;;;;;;14.30;2.67;;;;;;;;;;5035170;28;20495;-70
2022/06/19 04:43:11;;;;;;;15.43;2.50;;;;;;;;;;5053318;28;20084;-69
2022/06/19 04:45:38;;;;;;;15.93;2.50;;;;;;;;;;5052536;28;20127;-70
2022/06/19 04:48:04;;;;;;;15.52;2.55;;;;;;;;;;5052530;28;20049;-69
2022/06/19 04:50:31;;;;;;;15.38;2.70;;;;;;;;;;5052056;28;20037;-69
2022/06/19 04:52:57;;;;;;;13.10;2.42;;;;;;;;;;5052989;28;20037;-70
2022/06/19 04:55:23;;;;;;;12.85;2.13;;;;;;;;;;5040180;28;20083;-69
2022/06/19 04:57:49;;;;;;;12.38;2.30;;;;;;;;;;5033335;28;20049;-70
2022/06/19 05:00:16;;;;;;;11.10;1.92;;;;;;;;;;5043576;28;20059;-70
2022/06/19 05:02:42;;;;;;;11.85;1.88;;;;;;;;;;5051513;28;20072;-70
2022/06/19 05:05:08;;;;;;;11.90;1.75;;;;;;;;;;5043031;28;20041;-70
2022/06/19 05:07:35;;;;;;;8.00;1.50;;;;;;;;;;5015855;28;20056;-70
2022/06/19 05:10:01;;;;;;;12.40;2.17;;;;;;;;;;5030444;28;20037;-70
2022/06/19 05:12:27;;;;;;;8.90;1.85;;;;;;;;;;5051458;28;20099;-69
2022/06/19 05:14:53;;;;;;;8.85;2.00;;;;;;;;;;5050947;28;20072;-69
2022/06/19 05:17:20;;;;;;;10.77;1.42;;;;;;;;;;5052945;28;20073;-69
2022/06/19 05:19:46;;;;;;;9.75;1.70;;;;;;;;;;5051370;28;20041;-69
2022/06/19 05:22:12;;;;;;;7.25;1.70;;;;;;;;;;5052870;28;20098;-68
2022/06/19 05:24:38;;;;;;;12.65;1.80;;;;;;;;;;5034507;28;20041;-69
2022/06/19 05:27:11;;;;;;;10.70;1.90;;;;;;;;;;5051918;28;20041;-69
2022/06/19 05:29:37;;;;;;;11.88;1.70;;;;;;;;;;5033954;28;20080;-70
2022/06/19 05:32:04;;;;;;;9.45;1.70;;;;;;;;;;5051041;28;20052;-70
2022/06/19 05:34:31;;;;;;;11.27;1.90;;;;;;;;;;5033726;28;20048;-69
2022/06/19 05:36:57;;;;;;;9.13;1.48;;;;;;;;;;5052775;28;20038;-69
2022/06/19 05:39:23;;;;;;;10.05;1.55;;;;;;;;;;5050137;28;20099;-69
2022/06/19 05:41:49;;;;;;;10.30;1.40;;;;;;;;;;5045486;28;20073;-70
2022/06/19 05:44:15;;;;;;;9.38;1.55;;;;;;;;;;5051993;28;20132;-70
2022/06/19 05:46:44;;;;;;;7.72;1.25;;;;;;;;;;5033928;28;20073;-68
2022/06/19 05:49:10;;;;;;;9.52;1.45;;;;;;;;;;5014677;28;20042;-70
2022/06/19 05:51:36;;;;;;;9.52;1.95;;;;;;;;;;5030736;28;20415;-70
2022/06/19 05:54:03;;;;;;;11.65;2.22;;;;;;;;;;5052095;28;20041;-70
2022/06/19 05:56:29;;;;;;;14.15;2.40;;;;;;;;;;5052482;28;20048;-69
2022/06/19 05:58:55;;;;;;;15.15;2.63;;;;;;;;;;5051745;28;20491;-69
2022/06/19 06:01:22;;;;;;;14.27;2.60;;;;;;;;;;5049388;28;20483;-69
2022/06/19 06:03:49;;;;;;;16.52;2.25;;;;;;;;;;5016468;28;20129;-69
2022/06/19 06:06:16;;;;;;;13.43;2.42;;;;;;;;;;5051873;28;20110;-70
2022/06/19 06:08:42;;;;;;;15.25;2.47;;;;;;;;;;5026733;28;20121;-68
2022/06/19 06:11:08;;;;;;;14.68;2.40;;;;;;;;;;5044568;28;20041;-69
2022/06/19 06:13:34;;;;;;;12.00;2.25;;;;;;;;;;5036743;28;20163;-69
2022/06/19 06:16:01;;;;;;;11.45;1.92;;;;;;;;;;5034297;28;20124;-70
2022/06/19 06:18:27;;;;;;;10.93;1.70;;;;;;;;;;5053430;28;20033;-69
2022/06/19 06:20:57;;;;;;;14.95;2.63;;;;;;;;;;5055750;28;20041;-70
2022/06/19 06:23:23;;;;;;;11.98;2.25;;;;;;;;;;5034467;28;20091;-68
2022/06/19 06:25:57;;;;;;;10.63;1.98;;;;;;;;;;5052324;28;20052;-69
2022/06/19 06:28:23;;;;;;;9.48;1.92;;;;;;;;;;5054924;28;20044;-68
2022/06/19 06:30:49;;;;;;;14.38;2.00;;;;;;;;;;5051717;28;20042;-70
2022/06/19 06:33:15;;;;;;;13.18;2.17;;;;;;;;;;5052512;28;20063;-70
2022/06/19 06:35:41;;;;;;;11.90;2.05;;;;;;;;;;5053608;28;20077;-70
2022/06/19 06:38:07;;;;;;;13.35;2.47;;;;;;;;;;5053104;28;20446;-69
2022/06/19 06:40:33;;;;;;;9.90;2.25;;;;;;;;;;5052373;28;20084;-70
2022/06/19 06:42:59;;;;;;;13.65;2.50;;;;;;;;;;5046755;28;20127;-69
2022/06/19 06:45:25;;;;;;;12.15;2.30;;;;;;;;;;5036953;28;20041;-70
2022/06/19 06:47:52;;;;;;;12.38;2.28;;;;;;;;;;5048604;28;20044;-70
2022/06/19 06:50:18;;;;;;;17.85;2.53;;;;;;;;;;5045744;28;20515;-71
2022/06/19 06:52:44;;;;;;;11.82;2.00;;;;;;;;;;5045349;28;20114;-68
2022/06/19 06:55:11;;;;;;;14.70;2.63;;;;;;;;;;5052009;28;20049;-70
2022/06/19 06:57:37;;;;;;;11.00;2.35;;;;;;;;;;5054039;28;20037;-70
2022/06/19 07:00:03;;;;;;;13.27;2.20;;;;;;;;;;5054410;28;20048;-70
2022/06/19 07:02:29;;;;;;;14.30;2.33;;;;;;;;;;5052725;28;20033;-70
2022/06/19 07:04:56;;;;;;;13.75;2.28;;;;;;;;;;5053622;28;20502;-69
2022/06/19 07:07:22;;;;;;;14.38;2.95;;;;;;;;;;5051913;28;20037;-69
2022/06/19 07:09:48;;;;;;;15.70;2.92;;;;;;;;;;5034189;28;20059;-69
2022/06/19 07:12:14;;;;;;;14.85;2.50;;;;;;;;;;5042655;28;20167;-68
2022/06/19 07:14:40;;;;;;;17.20;2.70;;;;;;;;;;5054236;28;20407;-69
2022/06/19 07:17:06;;;;;;;13.70;2.30;;;;;;;;;;5054873;28;20124;-70
2022/06/19 07:19:32;;;;;;;15.77;2.83;;;;;;;;;;5055072;28;20107;-69
2022/06/19 07:21:58;;;;;;;17.50;2.60;;;;;;;;;;5054336;28;20049;-70
2022/06/19 07:24:25;;;;;;;16.35;2.45;;;;;;;;;;5054338;28;20048;-70
2022/06/19 07:26:51;;;;;;;15.93;3.13;;;;;;;;;;5053256;28;20486;-70
2022/06/19 07:29:17;;;;;;;12.25;2.28;;;;;;;;;;5048565;28;20056;-69
2022/06/19 07:31:43;;;;;;;13.25;2.30;;;;;;;;;;5053224;28;20044;-70
2022/06/19 07:34:09;;;;;;;13.65;2.72;;;;;;;;;;5053952;28;20049;-69
2022/06/19 07:36:35;;;;;;;14.15;2.50;;;;;;;;;;5051977;28;20116;-70
2022/06/19 07:39:02;;;;;;;14.13;2.30;;;;;;;;;;5047274;28;20423;-70
2022/06/19 07:41:28;;;;;;;14.52;2.42;;;;;;;;;;5058748;28;20105;-70
2022/06/19 07:43:56;;;;;;;16.10;2.88;;;;;;;;;;5052322;28;20423;-70
2022/06/19 07:46:23;;;;;;;12.80;2.22;;;;;;;;;;5052551;28;20057;-70
2022/06/19 07:51:35;;;;;;;12.35;2.28;;;;;;;;;;5051085;28;20487;-70
2022/06/19 07:54:01;;;;;;;14.27;2.45;;;;;;;;;;5071125;28;20057;-69
2022/06/19 07:56:28;;;;;;;17.80;2.67;;;;;;;;;;5059344;28;20072;-69
2022/06/19 07:58:54;;;;;;;17.90;2.65;;;;;;;;;;5055173;28;20499;-70
2022/06/19 08:01:20;;;;;;;18.63;2.75;;;;;;;;;;5053098;28;20048;-69
2022/06/19 08:03:46;;;;;;;16.25;2.67;;;;;;;;;;5057066;28;20033;-69
2022/06/19 08:06:14;;;;;;;16.58;2.55;;;;;;;;;;5043861;28;20041;-70
2022/06/19 08:08:40;;;;;;;13.50;2.70;;;;;;;;;;5036358;28;20032;-70
2022/06/19 08:11:06;;;;;;;17.20;3.03;;;;;;;;;;5066827;28;20073;-70
2022/06/19 08:13:33;;;;;;;14.07;2.20;;;;;;;;;;5050626;28;20049;-70
2022/06/19 08:16:02;;;;;;;13.77;2.30;;;;;;;;;;5051153;28;20124;-70
2022/06/19 08:18:28;;;;;;;12.38;2.25;;;;;;;;;;5053840;28;20418;-70
2022/06/19 08:20:54;;;;;;;14.48;2.45;;;;;;;;;;5017755;28;20052;-71
2022/06/19 08:23:21;;;;;;;16.48;2.75;;;;;;;;;;5052636;28;20056;-70
2022/06/19 08:25:47;;;;;;;19.45;2.80;;;;;;;;;;5048204;28;20040;-70
2022/06/19 08:28:15;;;;;;;15.52;2.70;;;;;;;;;;5052904;28;20037;-70
2022/06/19 08:30:42;;;;;;;13.85;2.90;;;;;;;;;;5066086;28;20052;-71
2022/06/19 08:33:09;;;;;;;17.65;2.70;;;;;;;;;;5052551;28;20095;-71
2022/06/19 08:35:38;;;;;;;15.52;3.00;;;;;;;;;;5049654;28;20052;-68
2022/06/19 08:38:05;;;;;;;15.65;2.42;;;;;;;;;;5043782;28;20069;-70
2022/06/19 08:40:31;;;;;;;15.73;2.85;;;;;;;;;;5052237;28;20048;-70
2022/06/19 08:43:04;;;;;;;16.15;2.40;;;;;;;;;;5044503;28;20394;-70
2022/06/19 08:45:36;;;;;;;15.13;2.83;;;;;;;;;;5049383;28;20041;-70
2022/06/19 08:48:08;;;;;;;19.23;2.92;;;;;;;;;;5052926;28;20452;-70
2022/06/19 08:50:37;;;;;;;18.58;2.30;;;;;;;;;;5057600;28;20049;-69
2022/06/19 08:53:16;;;;;;;15.32;2.35;;;;;;;;;;5063752;28;20049;-69
2022/06/19 08:56:03;;;;;;;14.70;2.08;;;;;;;;;;5052499;28;20047;-70
2022/06/19 08:58:49;;;;;;;15.60;2.75;;;;;;;;;;5052672;28;20051;-70
2022/06/19 09:01:27;;;;;;;15.68;3.03;;;;;;;;;;5052785;28;20051;-70
2022/06/19 09:06:59;;;;;;;14.95;2.80;;;;;;;;;;5032999;28;20479;-70
2022/06/19 09:09:25;;;;;;;16.33;2.67;;;;;;;;;;5045978;28;20045;-70
2022/06/19 09:11:51;;;;;;;17.15;2.67;;;;;;;;;;5051064;28;20041;-70
2022/06/19 09:14:29;;;;;;;17.30;3.00;;;;;;;;;;5049318;28;20380;-70
2022/06/19 09:17:01;;;;;;;13.95;2.58;;;;;;;;;;5051437;28;20056;-70
2022/06/19 09:19:27;;;;;;;;;;;;;;;;;;5069753;28;20400;-70
2022/06/19 09:22:06;;;;;;;15.90;3.00;;;;;;;;;;5063724;28;19968;-70
2022/06/19 09:24:47;;;;;;;16.30;3.00;;;;;;;;;;5041026;28;20049;-70
2022/06/19 09:27:15;;;;;;;16.02;2.88;;;;;;;;;;5040024;28;22881;-70
2022/06/19 09:29:47;;;;;;;20.17;3.25;;;;;;;;;;5052325;28;20045;-70
2022/06/19 09:32:36;;;;;;;15.60;2.75;;;;;;;;;;5064729;28;20048;-71
2022/06/19 09:35:02;;;;;;;18.88;2.90;;;;;;;;;;5063167;28;20060;-71
2022/06/19 09:37:30;;;;;;;17.33;2.63;;;;;;;;;;5069068;28;20498;-70
2022/06/19 09:40:03;;;;;;;16.58;3.20;;;;;;;;;;5065309;28;20045;-70
2022/06/19 09:42:32;;;;;;;15.63;2.75;;;;;;;;;;5057973;28;20402;-70
2022/06/19 09:45:30;;;;;;;17.38;2.70;;;;;;;;;;5030656;28;20080;-70
2022/06/19 09:47:56;;;;;;;16.23;2.80;;;;;;;;;;4999464;28;20052;-70
2022/06/19 09:50:22;;;;;;;16.63;2.90;;;;;;;;;;5057250;28;20037;-70
2022/06/19 09:52:54;;;;;;;14.70;2.83;;;;;;;;;;5057520;28;20381;-70
2022/06/19 09:55:27;;;;;;;16.98;2.80;;;;;;;;;;5074385;28;20048;-70
2022/06/19 09:58:05;;;;;;;16.30;3.05;;;;;;;;;;5056292;28;20045;-70
2022/06/19 10:00:33;;;;;;;14.93;3.08;;;;;;;;;;5076631;28;20158;-71
2022/06/19 10:03:02;;;;;;;14.35;2.95;;;;;;;;;;5070345;28;20128;-70
2022/06/19 10:05:40;;;;;;;15.93;2.78;;;;;;;;;;5055690;28;20453;-70
2022/06/19 10:08:06;;;;;;;14.65;3.03;;;;;;;;;;5047776;28;20049;-70
2022/06/19 10:10:39;;;;;;;13.70;2.75;;;;;;;;;;5047449;28;20055;-69
2022/06/19 10:13:17;;;;;;;16.90;3.03;;;;;;;;;;5053737;28;20051;-70
2022/06/19 10:15:44;;;;;;;13.63;2.90;;;;;;;;;;5037445;28;20091;-70
2022/06/19 10:18:22;;;;;;;14.77;3.03;;;;;;;;;;5066236;28;20044;-69
2022/06/19 10:20:48;;;;;;;18.70;4.00;;;;;;;;;;5050625;28;20076;-70
2022/06/19 10:23:22;;;;;;;11.63;3.13;;;;;;;;;;5068749;28;20515;-69
2022/06/19 10:26:06;;;;;;;14.15;3.58;;;;;;;;;;5044503;28;20049;-69
2022/06/19 10:28:51;;;;;;;12.50;2.45;;;;;;;;;;5055483;28;20075;-70
2022/06/19 10:31:26;;;;;;;9.90;2.65;;;;;;;;;;5052524;28;20047;-69
2022/06/19 10:34:01;;;;;;;12.68;2.85;;;;;;;;;;5049972;28;20156;-70
2022/06/19 10:36:40;;;;;;;14.48;2.80;;;;;;;;;;5046069;28;20037;-70
2022/06/19 10:39:25;;;;;;;13.35;3.38;;;;;;;;;;5070071;28;20043;-70
2022/06/19 10:42:11;;;;;;;11.88;3.15;;;;;;;;;;5046340;28;20074;-70
2022/06/19 10:44:56;;;;;;;15.63;3.63;;;;;;;;;;5062827;28;20119;-70
2022/06/19 10:47:31;;;;;;;14.80;3.13;;;;;;;;;;5072578;28;20040;-70
2022/06/19 10:50:16;;;;;;;13.05;3.25;;;;;;;;;;5021307;28;20041;-70
2022/06/19 10:53:00;;;;;;;14.80;3.28;;;;;;;;;;5044178;28;20048;-70
2022/06/19 10:55:26;;;;;;;13.43;3.10;;;;;;;;;;5073848;28;20090;-70
2022/06/19 10:58:11;;;;;;;14.57;3.00;;;;;;;;;;5075656;28;20044;-70
2022/06/19 11:00:37;;;;;;;13.27;2.97;;;;;;;;;;5026839;28;20064;-70
2022/06/19 11:06:02;;;;;;;14.40;2.75;;;;;;;;;;5073582;28;20045;-70
2022/06/19 11:08:35;;;;;;;9.93;2.30;;;;;;;;;;5067174;28;20033;-69
2022/06/19 11:11:01;;;;;;;10.80;2.45;;;;;;;;;;5054515;28;20049;-71
2022/06/19 11:13:49;;;;;;;12.45;2.53;;;;;;;;;;5054772;28;20049;-69
2022/06/19 11:16:15;;;;;;;13.75;2.78;;;;;;;;;;5036683;28;20065;-70
2022/06/19 11:18:46;;;;;;;12.90;2.30;;;;;;;;;;5054153;28;20049;-70
2022/06/19 11:21:14;;;;;;;12.05;2.80;;;;;;;;;;5053837;28;20043;-70
2022/06/19 11:23:51;;;;;;;9.65;2.20;;;;;;;;;;5060399;28;20043;-70
2022/06/19 11:26:22;;;;;;;9.32;2.13;;;;;;;;;;5019324;28;20045;-70
2022/06/19 11:28:53;;;;;;;10.38;1.88;;;;;;;;;;5054384;28;20045;-69
2022/06/19 11:31:21;;;;;;;8.57;2.42;;;;;;;;;;5062459;28;20063;-70
2022/06/19 11:33:49;;;;;;;14.05;2.35;;;;;;;;;;5059604;28;20179;-70
2022/06/19 11:36:45;;;;;;;10.50;2.30;;;;;;;;;;5067390;28;20053;-70
2022/06/19 11:39:32;;;;;;;10.77;2.70;;;;;;;;;;5013525;28;20057;-70
2022/06/19 11:41:58;;;;;;;9.52;2.72;;;;;;;;;;5037416;28;20055;-70
2022/06/19 11:44:24;;;;;;;10.65;2.67;;;;;;;;;;5063797;28;20049;-70
2022/06/19 11:46:55;;;;;;;9.65;2.83;;;;;;;;;;5072789;28;20041;-70
2022/06/19 11:49:27;;;;;;;12.50;2.70;;;;;;;;;;5069688;28;20135;-70
2022/06/19 11:51:54;;;;;;;10.10;2.42;;;;;;;;;;5058958;28;20044;-71
2022/06/19 11:54:25;;;;;;;10.95;2.22;;;;;;;;;;5063537;28;20483;-68
2022/06/19 11:56:52;;;;;;;10.27;2.47;;;;;;;;;;5034341;28;20053;-69
2022/06/19 11:59:39;;;;;;;8.65;2.50;;;;;;;;;;5052096;28;20049;-70
2022/06/19 12:02:21;;;;;;;10.10;2.50;;;;;;;;;;5024429;28;20495;-70
2022/06/19 12:04:53;;;;;;;11.85;2.67;;;;;;;;;;5040095;28;20092;-70
2022/06/19 12:07:20;;;;;;;13.05;2.78;;;;;;;;;;5050441;28;20439;-69
2022/06/19 12:09:55;;;;;;;10.70;2.42;;;;;;;;;;5050174;28;20047;-70
2022/06/19 12:12:21;;;;;;;8.85;1.90;;;;;;;;;;5068282;28;20066;-69
2022/06/19 12:14:48;;;;;;;8.05;2.00;;;;;;;;;;5050710;28;20053;-69
2022/06/19 12:17:22;;;;;;;10.05;2.00;;;;;;;;;;5053326;28;20144;-71
2022/06/19 12:20:03;;;;;;;9.10;1.58;;;;;;;;;;5053319;28;20431;-70
2022/06/19 12:22:48;;;;;;;11.52;1.60;;;;;;;;;;5049853;28;20069;-70
2022/06/19 12:25:20;;;;;;;8.48;1.77;;;;;;;;;;5049322;28;20041;-70
2022/06/19 12:28:05;;;;;;;9.07;1.30;;;;;;;;;;5049777;28;20087;-69
2022/06/19 12:30:41;;;;;;;9.32;1.40;;;;;;;;;;5053680;28;20041;-70
2022/06/19 12:33:11;;;;;;;10.50;1.48;;;;;;;;;;5048652;28;20056;-70
2022/06/19 12:35:42;;;;;;;5.80;1.20;;;;;;;;;;5052429;28;20049;-70
2022/06/19 12:38:12;;;;;;;8.05;1.50;;;;;;;;;;5050997;28;20418;-70
2022/06/19 12:40:45;;;;;;;6.55;1.17;;;;;;;;;;5035558;28;20533;-69
2022/06/19 12:43:24;;;;;;;8.30;1.38;;;;;;;;;;5051771;28;20059;-70
2022/06/19 12:45:54;;;;;;;8.68;1.25;;;;;;;;;;5053516;28;20088;-70
2022/06/19 12:48:59;;;;;;;7.60;1.33;;;;;;;;;;5052777;28;20048;-70
2022/06/19 12:51:29;;;;;;;7.05;1.20;;;;;;;;;;4972539;28;20130;-70
2022/06/19 12:54:07;;;;;;;7.85;1.58;;;;;;;;;;4971363;28;20047;-70
2022/06/19 12:56:39;;;;;;;5.32;1.00;;;;;;;;;;4965803;28;20085;-67
2022/06/19 12:59:23;;;;;;;5.70;1.30;;;;;;;;;;4972409;28;20058;-68
2022/06/19 13:01:49;;;;;;;7.07;1.33;;;;;;;;;;4971431;28;20053;-69
2022/06/19 13:04:34;;;;;;;8.73;1.48;;;;;;;;;;4970325;28;20047;-69
2022/06/19 13:07:00;;;;;;;6.78;1.20;;;;;;;;;;4964871;28;20885;-70
2022/06/19 13:09:35;;;;;;;5.40;1.23;;;;;;;;;;4937140;28;20051;-70
2022/06/19 13:12:21;;;;;;;5.63;1.30;;;;;;;;;;4971635;28;20520;-68
2022/06/19 13:14:57;;;;;;;6.78;1.20;;;;;;;;;;4938831;28;20047;-70
2022/06/19 13:17:27;;;;;;;6.35;1.17;;;;;;;;;;4970555;28;20398;-69
2022/06/19 13:19:56;;;;;;;5.15;1.20;;;;;;;;;;4972020;28;20058;-70
2022/06/19 13:22:25;;;;;;;4.53;0.85;;;;;;;;;;4985367;28;20078;-70
2022/06/19 13:25:08;;;;;;;5.72;1.20;;;;;;;;;;5017814;28;20092;-71
2022/06/19 13:27:53;;;;;;;7.40;1.60;;;;;;;;;;5051969;28;20041;-71
2022/06/19 13:30:25;;;;;;;6.13;1.40;;;;;;;;;;5016720;28;20423;-71
2022/06/19 13:32:52;;;;;;;5.50;1.10;;;;;;;;;;5037912;28;20056;-71
2022/06/19 13:35:26;;;;;;;5.03;1.20;;;;;;;;;;5034462;28;20487;-70
2022/06/19 13:37:58;;;;;;;5.75;1.33;;;;;;;;;;5052812;28;20372;-69
2022/06/19 13:40:31;;;;;;;6.28;1.13;;;;;;;;;;5049343;28;20415;-69
2022/06/19 13:43:03;;;;;;;4.85;1.23;;;;;;;;;;5046142;28;20077;-71
2022/06/19 13:45:40;;;;;;;4.88;0.77;;;;;;;;;;5047063;28;20045;-70
2022/06/19 13:48:25;;;;;;;5.28;0.93;;;;;;;;;;5052276;28;20128;-70
2022/06/19 13:50:53;;;;;;;4.07;1.10;;;;;;;;;;5025017;28;20041;-70
2022/06/19 13:53:40;;;;;;;5.57;1.27;;;;;;;;;;5051595;28;20503;-70
2022/06/19 13:56:23;;;;;;;5.82;1.40;;;;;;;;;;5041991;28;20052;-70
2022/06/19 13:58:53;;;;;;;5.63;1.33;;;;;;;;;;5052627;28;20507;-70
2022/06/19 14:01:22;;;;;;;7.00;1.33;;;;;;;;;;5050491;28;20044;-70
2022/06/19 14:06:57;;;;;;;4.15;1.20;;;;;;;;;;5051412;28;20057;-70
2022/06/19 14:09:42;;;;;;;6.68;1.10;;;;;;;;;;5050069;28;20053;-70
2022/06/19 14:12:10;;;;;;;6.72;1.23;;;;;;;;;;5044402;28;20044;-69
2022/06/19 14:14:42;;;;;;;6.68;1.30;;;;;;;;;;5034084;28;20052;-70
2022/06/19 14:17:08;;;;;;;;;;;;;;;;;;5052416;28;20053;-70
2022/06/19 14:19:43;;;;;;;6.28;1.35;;;;;;;;;;5051274;28;19925;-70
2022/06/19 14:22:15;;;;;;;6.72;1.20;;;;;;;;;;5034509;28;20099;-70
2022/06/19 14:24:41;;;;;;;6.47;1.40;;;;;;;;;;5049111;28;20454;-70
2022/06/19 14:27:14;;;;;;;5.85;1.15;;;;;;;;;;5051588;28;20080;-70
2022/06/19 14:29:45;;;;;;;7.85;1.33;;;;;;;;;;5036736;28;20055;-69
2022/06/19 14:32:16;;;;;;;5.93;1.30;;;;;;;;;;5034244;28;20080;-69
2022/06/19 14:34:48;;;;;;;6.95;1.33;;;;;;;;;;5027692;28;20049;-69
2022/06/19 14:37:26;;;;;;;8.50;1.20;;;;;;;;;;5044490;28;20103;-69
2022/06/19 14:39:53;;;;;;;8.57;1.52;;;;;;;;;;5031508;28;20044;-69
2022/06/19 14:42:19;;;;;;;6.78;1.40;;;;;;;;;;5043832;28;20046;-69
2022/06/19 14:44:46;;;;;;;6.55;1.42;;;;;;;;;;5046650;28;20503;-69
2022/06/19 14:47:19;;;;;;;10.10;1.33;;;;;;;;;;5052717;28;20516;-70
2022/06/19 14:50:04;;;;;;;6.57;1.10;;;;;;;;;;5055567;28;20124;-70
2022/06/19 14:52:36;;;;;;;6.15;1.33;;;;;;;;;;5035349;28;20045;-70
2022/06/19 14:55:07;;;;;;;6.28;1.20;;;;;;;;;;5050147;28;20041;-70
2022/06/19 14:57:42;;;;;;;7.07;1.25;;;;;;;;;;5037116;28;20120;-71
2022/06/19 15:00:11;;;;;;;8.35;1.50;;;;;;;;;;5055023;28;20044;-69
2022/06/19 15:02:54;;;;;;;8.05;1.17;;;;;;;;;;5050586;28;20052;-70